sensor_id;sensor_type;location;lat;lon;timestamp;P1;durP1;ratioP1;P2;durP2;ratioP2
7563;SDS011;3823;53.586;10.040;2024-03-06T00:02:03;18.02;;;9.77;;
7563;SDS011;3823;53.586;10.040;2024-03-06T00:04:29;14.93;;;9.23;;
7563;SDS011;3823;53.586;10.040;2024-03-06T00:06:55;18.08;;;10.05;;
7563;SDS011;3823;53.586;10.040;2024-03-06T00:09:21;20.02;;;11.13;;
7563;SDS011;3823;53.586;10.040;2024-03-06T00:11:46;15.90;;;10.20;;
7563;SDS011;3823;53.586;10.040;2024-03-06T00:14:12;13.85;;;9.32;;
7563;SDS011;3823;53.586;10.040;2024-03-06T00:16:38;12.65;;;8.30;;
7563;SDS011;3823;53.586;10.040;2024-03-06T00:19:03;13.82;;;9.95;;
7563;SDS011;3823;53.586;10.040;2024-03-06T00:21:29;14.25;;;9.40;;
7563;SDS011;3823;53.586;10.040;2024-03-06T00:23:55;14.18;;;9.18;;
7563;SDS011;3823;53.586;10.040;2024-03-06T00:26:20;12.90;;;8.70;;
7563;SDS011;3823;53.586;10.040;2024-03-06T00:28:46;16.23;;;8.68;;
7563;SDS011;3823;53.586;10.040;2024-03-06T00:31:12;12.20;;;8.50;;
7563;SDS011;3823;53.586;10.040;2024-03-06T00:33:38;14.77;;;8.70;;
7563;SDS011;3823;53.586;10.040;2024-03-06T00:36:05;11.48;;;8.10;;
7563;SDS011;3823;53.586;10.040;2024-03-06T00:38:31;15.15;;;9.15;;
7563;SDS011;3823;53.586;10.040;2024-03-06T00:40:56;19.15;;;8.93;;
7563;SDS011;3823;53.586;10.040;2024-03-06T00:43:22;12.65;;;8.70;;
7563;SDS011;3823;53.586;10.040;2024-03-06T00:45:48;11.27;;;7.50;;
7563;SDS011;3823;53.586;10.040;2024-03-06T00:48:14;11.48;;;8.65;;
7563;SDS011;3823;53.586;10.040;2024-03-06T00:50:40;11.77;;;8.50;;
7563;SDS011;3823;53.586;10.040;2024-03-06T00:53:06;14.18;;;9.40;;
7563;SDS011;3823;53.586;10.040;2024-03-06T00:55:31;12.73;;;8.65;;
7563;SDS011;3823;53.586;10.040;2024-03-06T00:57:57;15.85;;;8.75;;
7563;SDS011;3823;53.586;10.040;2024-03-06T01:00:22;14.65;;;8.90;;
7563;SDS011;3823;53.586;10.040;2024-03-06T01:02:48;12.90;;;9.57;;
7563;SDS011;3823;53.586;10.040;2024-03-06T01:05:14;12.27;;;8.93;;
7563;SDS011;3823;53.586;10.040;2024-03-06T01:07:39;15.50;;;9.02;;
7563;SDS011;3823;53.586;10.040;2024-03-06T01:10:05;15.32;;;9.57;;
7563;SDS011;3823;53.586;10.040;2024-03-06T01:12:32;13.32;;;9.35;;
7563;SDS011;3823;53.586;10.040;2024-03-06T01:14:58;20.30;;;13.27;;
7563;SDS011;3823;53.586;10.040;2024-03-06T01:17:23;14.15;;;8.90;;
7563;SDS011;3823;53.586;10.040;2024-03-06T01:19:49;12.98;;;9.50;;
7563;SDS011;3823;53.586;10.040;2024-03-06T01:22:15;13.50;;;8.25;;
7563;SDS011;3823;53.586;10.040;2024-03-06T01:24:41;13.18;;;7.90;;
7563;SDS011;3823;53.586;10.040;2024-03-06T01:27:07;16.63;;;9.23;;
7563;SDS011;3823;53.586;10.040;2024-03-06T01:29:32;14.18;;;8.70;;
7563;SDS011;3823;53.586;10.040;2024-03-06T01:31:58;16.73;;;9.63;;
7563;SDS011;3823;53.586;10.040;2024-03-06T01:34:24;19.65;;;9.68;;
7563;SDS011;3823;53.586;10.040;2024-03-06T01:36:50;12.50;;;9.35;;
7563;SDS011;3823;53.586;10.040;2024-03-06T01:39:16;13.77;;;8.80;;
7563;SDS011;3823;53.586;10.040;2024-03-06T01:41:46;14.95;;;8.73;;
7563;SDS011;3823;53.586;10.040;2024-03-06T01:44:12;15.95;;;8.52;;
7563;SDS011;3823;53.586;10.040;2024-03-06T01:46:42;12.75;;;7.78;;
7563;SDS011;3823;53.586;10.040;2024-03-06T01:49:09;12.43;;;8.40;;
7563;SDS011;3823;53.586;10.040;2024-03-06T01:51:38;20.02;;;9.20;;
7563;SDS011;3823;53.586;10.040;2024-03-06T01:54:05;11.90;;;8.30;;
7563;SDS011;3823;53.586;10.040;2024-03-06T01:56:34;13.00;;;9.00;;
7563;SDS011;3823;53.586;10.040;2024-03-06T01:59:02;18.52;;;9.32;;
7563;SDS011;3823;53.586;10.040;2024-03-06T02:01:29;12.93;;;8.40;;
7563;SDS011;3823;53.586;10.040;2024-03-06T02:03:56;15.60;;;8.43;;
7563;SDS011;3823;53.586;10.040;2024-03-06T02:06:21;13.80;;;8.88;;
7563;SDS011;3823;53.586;10.040;2024-03-06T02:08:47;13.25;;;8.13;;
7563;SDS011;3823;53.586;10.040;2024-03-06T02:11:13;17.52;;;9.85;;
7563;SDS011;3823;53.586;10.040;2024-03-06T02:13:41;12.73;;;8.13;;
7563;SDS011;3823;53.586;10.040;2024-03-06T02:16:08;17.88;;;8.75;;
7563;SDS011;3823;53.586;10.040;2024-03-06T02:18:34;16.50;;;10.10;;
7563;SDS011;3823;53.586;10.040;2024-03-06T02:21:01;14.15;;;9.35;;
7563;SDS011;3823;53.586;10.040;2024-03-06T02:23:27;18.33;;;9.68;;
7563;SDS011;3823;53.586;10.040;2024-03-06T02:25:53;15.20;;;8.40;;
7563;SDS011;3823;53.586;10.040;2024-03-06T02:28:18;15.05;;;8.50;;
7563;SDS011;3823;53.586;10.040;2024-03-06T02:30:44;10.98;;;7.55;;
7563;SDS011;3823;53.586;10.040;2024-03-06T02:33:09;11.48;;;8.13;;
7563;SDS011;3823;53.586;10.040;2024-03-06T02:35:35;14.55;;;8.23;;
7563;SDS011;3823;53.586;10.040;2024-03-06T02:38:01;17.38;;;7.65;;
7563;SDS011;3823;53.586;10.040;2024-03-06T02:40:32;11.02;;;8.00;;
7563;SDS011;3823;53.586;10.040;2024-03-06T02:42:57;12.65;;;9.05;;
7563;SDS011;3823;53.586;10.040;2024-03-06T02:45:23;16.20;;;8.30;;
7563;SDS011;3823;53.586;10.040;2024-03-06T02:47:49;13.45;;;7.78;;
7563;SDS011;3823;53.586;10.040;2024-03-06T02:50:14;10.02;;;6.88;;
7563;SDS011;3823;53.586;10.040;2024-03-06T02:52:40;14.05;;;8.15;;
7563;SDS011;3823;53.586;10.040;2024-03-06T02:55:06;10.95;;;7.07;;
7563;SDS011;3823;53.586;10.040;2024-03-06T02:57:32;10.00;;;7.63;;
7563;SDS011;3823;53.586;10.040;2024-03-06T02:59:58;9.10;;;7.85;;
7563;SDS011;3823;53.586;10.040;2024-03-06T03:02:24;10.27;;;6.80;;
7563;SDS011;3823;53.586;10.040;2024-03-06T03:04:50;11.55;;;7.20;;
7563;SDS011;3823;53.586;10.040;2024-03-06T03:07:17;9.57;;;7.65;;
7563;SDS011;3823;53.586;10.040;2024-03-06T03:09:44;13.07;;;6.97;;
7563;SDS011;3823;53.586;10.040;2024-03-06T03:12:10;13.35;;;6.75;;
7563;SDS011;3823;53.586;10.040;2024-03-06T03:14:36;12.38;;;7.85;;
7563;SDS011;3823;53.586;10.040;2024-03-06T03:17:02;11.25;;;7.03;;
7563;SDS011;3823;53.586;10.040;2024-03-06T03:19:30;9.32;;;6.95;;
7563;SDS011;3823;53.586;10.040;2024-03-06T03:21:56;15.45;;;7.03;;
7563;SDS011;3823;53.586;10.040;2024-03-06T03:24:22;13.70;;;7.50;;
7563;SDS011;3823;53.586;10.040;2024-03-06T03:26:50;13.27;;;8.38;;
7563;SDS011;3823;53.586;10.040;2024-03-06T03:29:16;11.23;;;8.40;;
7563;SDS011;3823;53.586;10.040;2024-03-06T03:31:42;13.02;;;7.35;;
7563;SDS011;3823;53.586;10.040;2024-03-06T03:34:07;13.05;;;7.30;;
7563;SDS011;3823;53.586;10.040;2024-03-06T03:36:33;11.32;;;7.35;;
7563;SDS011;3823;53.586;10.040;2024-03-06T03:38:59;10.73;;;7.28;;
7563;SDS011;3823;53.586;10.040;2024-03-06T03:41:25;11.40;;;7.35;;
7563;SDS011;3823;53.586;10.040;2024-03-06T03:43:51;10.68;;;7.28;;
7563;SDS011;3823;53.586;10.040;2024-03-06T03:46:16;11.20;;;7.68;;
7563;SDS011;3823;53.586;10.040;2024-03-06T03:48:42;10.70;;;8.13;;
7563;SDS011;3823;53.586;10.040;2024-03-06T03:51:08;11.57;;;6.95;;
7563;SDS011;3823;53.586;10.040;2024-03-06T03:53:33;10.32;;;7.45;;
7563;SDS011;3823;53.586;10.040;2024-03-06T03:56:00;14.50;;;7.85;;
7563;SDS011;3823;53.586;10.040;2024-03-06T03:58:25;11.52;;;7.55;;
7563;SDS011;3823;53.586;10.040;2024-03-06T04:00:51;11.98;;;7.63;;
7563;SDS011;3823;53.586;10.040;2024-03-06T04:03:20;16.40;;;7.78;;
7563;SDS011;3823;53.586;10.040;2024-03-06T04:05:47;8.23;;;6.95;;
7563;SDS011;3823;53.586;10.040;2024-03-06T04:08:13;12.93;;;7.75;;
7563;SDS011;3823;53.586;10.040;2024-03-06T04:10:39;11.63;;;7.45;;
7563;SDS011;3823;53.586;10.040;2024-03-06T04:13:04;7.95;;;6.60;;
7563;SDS011;3823;53.586;10.040;2024-03-06T04:15:31;14.35;;;7.72;;
7563;SDS011;3823;53.586;10.040;2024-03-06T04:17:57;9.65;;;6.43;;
7563;SDS011;3823;53.586;10.040;2024-03-06T04:20:23;13.27;;;7.47;;
7563;SDS011;3823;53.586;10.040;2024-03-06T04:22:48;11.13;;;7.40;;
7563;SDS011;3823;53.586;10.040;2024-03-06T04:25:16;24.60;;;7.93;;
7563;SDS011;3823;53.586;10.040;2024-03-06T04:27:41;9.23;;;6.95;;
7563;SDS011;3823;53.586;10.040;2024-03-06T04:30:07;10.65;;;6.68;;
7563;SDS011;3823;53.586;10.040;2024-03-06T04:32:34;9.45;;;7.50;;
7563;SDS011;3823;53.586;10.040;2024-03-06T04:35:00;7.78;;;6.80;;
7563;SDS011;3823;53.586;10.040;2024-03-06T04:37:25;10.35;;;7.32;;
7563;SDS011;3823;53.586;10.040;2024-03-06T04:39:51;11.95;;;6.47;;
7563;SDS011;3823;53.586;10.040;2024-03-06T04:42:17;11.02;;;6.20;;
7563;SDS011;3823;53.586;10.040;2024-03-06T04:44:44;9.52;;;6.47;;
7563;SDS011;3823;53.586;10.040;2024-03-06T04:47:10;10.38;;;6.28;;
7563;SDS011;3823;53.586;10.040;2024-03-06T04:49:36;9.75;;;6.60;;
7563;SDS011;3823;53.586;10.040;2024-03-06T04:52:02;8.32;;;6.18;;
7563;SDS011;3823;53.586;10.040;2024-03-06T04:54:28;8.18;;;6.43;;
7563;SDS011;3823;53.586;10.040;2024-03-06T04:56:54;10.60;;;7.78;;
7563;SDS011;3823;53.586;10.040;2024-03-06T04:59:20;8.75;;;6.75;;
7563;SDS011;3823;53.586;10.040;2024-03-06T05:01:45;11.40;;;6.97;;
7563;SDS011;3823;53.586;10.040;2024-03-06T05:04:11;8.93;;;6.90;;
7563;SDS011;3823;53.586;10.040;2024-03-06T05:06:37;8.73;;;6.90;;
7563;SDS011;3823;53.586;10.040;2024-03-06T05:09:02;10.32;;;6.38;;
7563;SDS011;3823;53.586;10.040;2024-03-06T05:11:29;10.45;;;6.60;;
7563;SDS011;3823;53.586;10.040;2024-03-06T05:13:57;7.72;;;6.78;;
7563;SDS011;3823;53.586;10.040;2024-03-06T05:16:24;11.98;;;8.18;;
7563;SDS011;3823;53.586;10.040;2024-03-06T05:18:51;9.38;;;6.88;;
7563;SDS011;3823;53.586;10.040;2024-03-06T05:21:17;17.75;;;6.50;;
7563;SDS011;3823;53.586;10.040;2024-03-06T05:23:43;11.23;;;7.28;;
7563;SDS011;3823;53.586;10.040;2024-03-06T05:26:08;8.20;;;6.18;;
7563;SDS011;3823;53.586;10.040;2024-03-06T05:28:34;10.93;;;6.80;;
7563;SDS011;3823;53.586;10.040;2024-03-06T05:31:00;10.77;;;7.28;;
7563;SDS011;3823;53.586;10.040;2024-03-06T05:33:26;9.82;;;6.65;;
7563;SDS011;3823;53.586;10.040;2024-03-06T05:35:54;11.13;;;7.22;;
7563;SDS011;3823;53.586;10.040;2024-03-06T05:38:19;10.20;;;6.80;;
7563;SDS011;3823;53.586;10.040;2024-03-06T05:40:47;9.50;;;7.03;;
7563;SDS011;3823;53.586;10.040;2024-03-06T05:43:12;9.00;;;7.05;;
7563;SDS011;3823;53.586;10.040;2024-03-06T05:45:38;9.80;;;6.45;;
7563;SDS011;3823;53.586;10.040;2024-03-06T05:48:03;9.88;;;7.63;;
7563;SDS011;3823;53.586;10.040;2024-03-06T05:50:30;8.88;;;7.03;;
7563;SDS011;3823;53.586;10.040;2024-03-06T05:52:55;10.32;;;7.50;;
7563;SDS011;3823;53.586;10.040;2024-03-06T05:55:22;8.23;;;6.32;;
7563;SDS011;3823;53.586;10.040;2024-03-06T05:57:48;10.18;;;7.88;;
7563;SDS011;3823;53.586;10.040;2024-03-06T06:00:14;25.83;;;9.35;;
7563;SDS011;3823;53.586;10.040;2024-03-06T06:02:43;12.32;;;7.43;;
7563;SDS011;3823;53.586;10.040;2024-03-06T06:05:10;10.38;;;7.55;;
7563;SDS011;3823;53.586;10.040;2024-03-06T06:07:36;9.25;;;7.07;;
7563;SDS011;3823;53.586;10.040;2024-03-06T06:10:03;13.27;;;7.53;;
7563;SDS011;3823;53.586;10.040;2024-03-06T06:12:33;9.63;;;7.22;;
7563;SDS011;3823;53.586;10.040;2024-03-06T06:14:58;10.60;;;7.68;;
7563;SDS011;3823;53.586;10.040;2024-03-06T06:17:24;12.43;;;7.10;;
7563;SDS011;3823;53.586;10.040;2024-03-06T06:19:50;12.05;;;7.57;;
7563;SDS011;3823;53.586;10.040;2024-03-06T06:22:15;13.23;;;7.35;;
7563;SDS011;3823;53.586;10.040;2024-03-06T06:24:41;10.70;;;7.72;;
7563;SDS011;3823;53.586;10.040;2024-03-06T06:27:07;11.35;;;7.22;;
7563;SDS011;3823;53.586;10.040;2024-03-06T06:29:33;9.25;;;7.75;;
7563;SDS011;3823;53.586;10.040;2024-03-06T06:31:59;11.38;;;7.47;;
7563;SDS011;3823;53.586;10.040;2024-03-06T06:34:24;10.35;;;7.32;;
7563;SDS011;3823;53.586;10.040;2024-03-06T06:36:52;10.25;;;7.28;;
7563;SDS011;3823;53.586;10.040;2024-03-06T06:39:18;9.75;;;7.10;;
7563;SDS011;3823;53.586;10.040;2024-03-06T06:41:44;12.50;;;7.15;;
7563;SDS011;3823;53.586;10.040;2024-03-06T06:44:09;7.82;;;5.90;;
7563;SDS011;3823;53.586;10.040;2024-03-06T06:46:35;8.68;;;6.68;;
7563;SDS011;3823;53.586;10.040;2024-03-06T06:49:00;11.43;;;6.78;;
7563;SDS011;3823;53.586;10.040;2024-03-06T06:51:26;11.43;;;7.85;;
7563;SDS011;3823;53.586;10.040;2024-03-06T06:53:52;12.15;;;8.57;;
7563;SDS011;3823;53.586;10.040;2024-03-06T06:56:17;15.25;;;9.13;;
7563;SDS011;3823;53.586;10.040;2024-03-06T06:58:43;8.75;;;7.15;;
7563;SDS011;3823;53.586;10.040;2024-03-06T07:01:08;13.20;;;7.55;;
7563;SDS011;3823;53.586;10.040;2024-03-06T07:03:35;9.82;;;7.80;;
7563;SDS011;3823;53.586;10.040;2024-03-06T07:06:00;13.02;;;7.38;;
7563;SDS011;3823;53.586;10.040;2024-03-06T07:08:28;10.57;;;8.02;;
7563;SDS011;3823;53.586;10.040;2024-03-06T07:10:54;8.85;;;7.28;;
7563;SDS011;3823;53.586;10.040;2024-03-06T07:13:20;11.15;;;7.05;;
7563;SDS011;3823;53.586;10.040;2024-03-06T07:15:45;10.57;;;7.93;;
7563;SDS011;3823;53.586;10.040;2024-03-06T07:18:11;10.77;;;7.22;;
7563;SDS011;3823;53.586;10.040;2024-03-06T07:20:39;11.23;;;6.53;;
7563;SDS011;3823;53.586;10.040;2024-03-06T07:23:05;8.48;;;6.55;;
7563;SDS011;3823;53.586;10.040;2024-03-06T07:25:30;9.27;;;6.50;;
7563;SDS011;3823;53.586;10.040;2024-03-06T07:27:56;12.05;;;7.00;;
7563;SDS011;3823;53.586;10.040;2024-03-06T07:30:21;9.88;;;7.20;;
7563;SDS011;3823;53.586;10.040;2024-03-06T07:32:47;8.65;;;6.03;;
7563;SDS011;3823;53.586;10.040;2024-03-06T07:35:13;10.55;;;7.30;;
7563;SDS011;3823;53.586;10.040;2024-03-06T07:37:38;10.25;;;7.32;;
7563;SDS011;3823;53.586;10.040;2024-03-06T07:40:05;10.52;;;6.25;;
7563;SDS011;3823;53.586;10.040;2024-03-06T07:42:32;9.65;;;5.88;;
7563;SDS011;3823;53.586;10.040;2024-03-06T07:44:58;12.48;;;5.88;;
7563;SDS011;3823;53.586;10.040;2024-03-06T07:47:24;11.52;;;6.68;;
7563;SDS011;3823;53.586;10.040;2024-03-06T07:49:49;11.10;;;6.75;;
7563;SDS011;3823;53.586;10.040;2024-03-06T07:52:15;7.90;;;6.03;;
7563;SDS011;3823;53.586;10.040;2024-03-06T07:54:41;7.70;;;5.97;;
7563;SDS011;3823;53.586;10.040;2024-03-06T07:57:07;8.90;;;6.22;;
7563;SDS011;3823;53.586;10.040;2024-03-06T07:59:34;7.60;;;6.82;;
7563;SDS011;3823;53.586;10.040;2024-03-06T08:02:00;7.50;;;5.28;;
7563;SDS011;3823;53.586;10.040;2024-03-06T08:04:26;9.93;;;6.50;;
7563;SDS011;3823;53.586;10.040;2024-03-06T08:06:52;6.95;;;5.63;;
7563;SDS011;3823;53.586;10.040;2024-03-06T08:09:17;7.05;;;5.60;;
7563;SDS011;3823;53.586;10.040;2024-03-06T08:11:44;10.32;;;5.88;;
7563;SDS011;3823;53.586;10.040;2024-03-06T08:14:10;7.63;;;5.65;;
7563;SDS011;3823;53.586;10.040;2024-03-06T08:16:36;6.97;;;6.25;;
7563;SDS011;3823;53.586;10.040;2024-03-06T08:19:02;7.80;;;6.22;;
7563;SDS011;3823;53.586;10.040;2024-03-06T08:21:28;7.82;;;6.75;;
7563;SDS011;3823;53.586;10.040;2024-03-06T08:23:53;11.18;;;5.57;;
7563;SDS011;3823;53.586;10.040;2024-03-06T08:26:19;12.20;;;6.68;;
7563;SDS011;3823;53.586;10.040;2024-03-06T08:28:45;7.30;;;6.05;;
7563;SDS011;3823;53.586;10.040;2024-03-06T08:31:10;8.93;;;6.40;;
7563;SDS011;3823;53.586;10.040;2024-03-06T08:33:36;7.40;;;6.25;;
7563;SDS011;3823;53.586;10.040;2024-03-06T08:36:02;6.55;;;5.95;;
7563;SDS011;3823;53.586;10.040;2024-03-06T08:38:28;6.82;;;5.57;;
7563;SDS011;3823;53.586;10.040;2024-03-06T08:40:54;8.43;;;6.40;;
7563;SDS011;3823;53.586;10.040;2024-03-06T08:43:19;9.32;;;6.85;;
7563;SDS011;3823;53.586;10.040;2024-03-06T08:45:46;9.48;;;5.57;;
7563;SDS011;3823;53.586;10.040;2024-03-06T08:48:12;6.68;;;5.50;;
7563;SDS011;3823;53.586;10.040;2024-03-06T08:50:38;6.93;;;6.22;;
7563;SDS011;3823;53.586;10.040;2024-03-06T08:53:04;8.85;;;5.68;;
7563;SDS011;3823;53.586;10.040;2024-03-06T08:55:29;8.40;;;5.70;;
7563;SDS011;3823;53.586;10.040;2024-03-06T08:57:55;8.50;;;6.32;;
7563;SDS011;3823;53.586;10.040;2024-03-06T09:00:21;12.57;;;6.93;;
7563;SDS011;3823;53.586;10.040;2024-03-06T09:02:46;7.90;;;6.18;;
7563;SDS011;3823;53.586;10.040;2024-03-06T09:05:12;6.97;;;5.32;;
7563;SDS011;3823;53.586;10.040;2024-03-06T09:07:38;6.85;;;5.70;;
7563;SDS011;3823;53.586;10.040;2024-03-06T09:10:07;8.02;;;5.75;;
7563;SDS011;3823;53.586;10.040;2024-03-06T09:12:34;8.25;;;6.05;;
7563;SDS011;3823;53.586;10.040;2024-03-06T09:15:01;8.48;;;6.13;;
7563;SDS011;3823;53.586;10.040;2024-03-06T09:17:27;8.13;;;5.10;;
7563;SDS011;3823;53.586;10.040;2024-03-06T09:19:53;5.93;;;5.32;;
7563;SDS011;3823;53.586;10.040;2024-03-06T09:22:19;5.50;;;4.97;;
7563;SDS011;3823;53.586;10.040;2024-03-06T09:24:44;8.65;;;6.07;;
7563;SDS011;3823;53.586;10.040;2024-03-06T09:27:10;7.82;;;5.95;;
7563;SDS011;3823;53.586;10.040;2024-03-06T09:29:36;7.97;;;5.18;;
7563;SDS011;3823;53.586;10.040;2024-03-06T09:32:01;7.28;;;4.95;;
7563;SDS011;3823;53.586;10.040;2024-03-06T09:34:27;9.18;;;6.05;;
7563;SDS011;3823;53.586;10.040;2024-03-06T09:36:53;8.55;;;6.30;;
7563;SDS011;3823;53.586;10.040;2024-03-06T09:39:18;7.32;;;5.55;;
7563;SDS011;3823;53.586;10.040;2024-03-06T09:41:54;9.57;;;6.20;;
7563;SDS011;3823;53.586;10.040;2024-03-06T09:44:21;6.53;;;5.45;;
7563;SDS011;3823;53.586;10.040;2024-03-06T09:46:48;7.18;;;6.28;;
7563;SDS011;3823;53.586;10.040;2024-03-06T09:49:15;9.50;;;7.15;;
7563;SDS011;3823;53.586;10.040;2024-03-06T09:51:43;9.27;;;7.15;;
7563;SDS011;3823;53.586;10.040;2024-03-06T09:54:13;8.93;;;6.72;;
7563;SDS011;3823;53.586;10.040;2024-03-06T09:56:42;10.38;;;6.20;;
7563;SDS011;3823;53.586;10.040;2024-03-06T09:59:14;11.88;;;7.35;;
7563;SDS011;3823;53.586;10.040;2024-03-06T10:01:45;10.90;;;7.22;;
7563;SDS011;3823;53.586;10.040;2024-03-06T10:04:19;9.20;;;7.05;;
7563;SDS011;3823;53.586;10.040;2024-03-06T10:06:46;7.88;;;6.60;;
7563;SDS011;3823;53.586;10.040;2024-03-06T10:09:11;10.05;;;8.00;;
7563;SDS011;3823;53.586;10.040;2024-03-06T10:11:40;15.00;;;7.65;;
7563;SDS011;3823;53.586;10.040;2024-03-06T10:14:07;15.13;;;7.15;;
7563;SDS011;3823;53.586;10.040;2024-03-06T10:16:33;14.35;;;8.77;;
7563;SDS011;3823;53.586;10.040;2024-03-06T10:19:17;10.02;;;7.68;;
7563;SDS011;3823;53.586;10.040;2024-03-06T10:21:43;10.70;;;7.45;;
7563;SDS011;3823;53.586;10.040;2024-03-06T10:24:11;12.55;;;8.63;;
7563;SDS011;3823;53.586;10.040;2024-03-06T10:26:37;20.85;;;7.60;;
7563;SDS011;3823;53.586;10.040;2024-03-06T10:29:03;13.77;;;8.25;;
7563;SDS011;3823;53.586;10.040;2024-03-06T10:31:29;13.90;;;8.38;;
7563;SDS011;3823;53.586;10.040;2024-03-06T10:33:54;11.85;;;8.43;;
7563;SDS011;3823;53.586;10.040;2024-03-06T10:36:20;11.05;;;8.07;;
7563;SDS011;3823;53.586;10.040;2024-03-06T10:38:45;12.10;;;6.97;;
7563;SDS011;3823;53.586;10.040;2024-03-06T10:41:15;11.25;;;8.43;;
7563;SDS011;3823;53.586;10.040;2024-03-06T10:43:46;9.80;;;7.47;;
7563;SDS011;3823;53.586;10.040;2024-03-06T10:46:15;13.30;;;8.40;;
7563;SDS011;3823;53.586;10.040;2024-03-06T10:48:44;10.52;;;8.07;;
7563;SDS011;3823;53.586;10.040;2024-03-06T10:51:12;12.07;;;8.10;;
7563;SDS011;3823;53.586;10.040;2024-03-06T10:53:39;12.88;;;8.80;;
7563;SDS011;3823;53.586;10.040;2024-03-06T10:56:08;11.88;;;8.23;;
7563;SDS011;3823;53.586;10.040;2024-03-06T10:58:34;10.68;;;8.13;;
7563;SDS011;3823;53.586;10.040;2024-03-06T11:01:00;10.65;;;8.35;;
7563;SDS011;3823;53.586;10.040;2024-03-06T11:03:28;10.80;;;8.30;;
7563;SDS011;3823;53.586;10.040;2024-03-06T11:05:55;13.48;;;8.73;;
7563;SDS011;3823;53.586;10.040;2024-03-06T11:08:21;11.32;;;8.18;;
7563;SDS011;3823;53.586;10.040;2024-03-06T11:10:48;11.35;;;8.50;;
7563;SDS011;3823;53.586;10.040;2024-03-06T11:15:45;10.82;;;7.93;;
7563;SDS011;3823;53.586;10.040;2024-03-06T11:23:28;15.13;;;9.20;;
7563;SDS011;3823;53.586;10.040;2024-03-06T11:33:12;12.13;;;7.85;;
7563;SDS011;3823;53.586;10.040;2024-03-06T11:35:41;11.15;;;7.60;;
7563;SDS011;3823;53.586;10.040;2024-03-06T11:38:09;10.68;;;7.80;;
7563;SDS011;3823;53.586;10.040;2024-03-06T11:40:42;11.27;;;8.77;;
7563;SDS011;3823;53.586;10.040;2024-03-06T11:43:24;16.08;;;8.05;;
7563;SDS011;3823;53.586;10.040;2024-03-06T11:45:50;9.75;;;7.47;;
7563;SDS011;3823;53.586;10.040;2024-03-06T11:48:15;10.65;;;8.23;;
7563;SDS011;3823;53.586;10.040;2024-03-06T11:50:46;9.68;;;7.38;;
7563;SDS011;3823;53.586;10.040;2024-03-06T11:53:12;13.02;;;8.65;;
7563;SDS011;3823;53.586;10.040;2024-03-06T11:55:39;11.20;;;7.78;;
7563;SDS011;3823;53.586;10.040;2024-03-06T11:58:04;13.32;;;7.80;;
7563;SDS011;3823;53.586;10.040;2024-03-06T12:00:32;11.05;;;8.02;;
7563;SDS011;3823;53.586;10.040;2024-03-06T12:02:58;12.55;;;7.90;;
7563;SDS011;3823;53.586;10.040;2024-03-06T12:05:24;10.18;;;8.15;;
7563;SDS011;3823;53.586;10.040;2024-03-06T12:07:50;9.43;;;6.47;;
7563;SDS011;3823;53.586;10.040;2024-03-06T12:10:16;10.95;;;7.57;;
7563;SDS011;3823;53.586;10.040;2024-03-06T12:12:42;9.75;;;7.65;;
7563;SDS011;3823;53.586;10.040;2024-03-06T12:15:09;14.02;;;9.20;;
7563;SDS011;3823;53.586;10.040;2024-03-06T12:17:47;12.18;;;7.10;;
7563;SDS011;3823;53.586;10.040;2024-03-06T12:20:17;12.50;;;8.75;;
7563;SDS011;3823;53.586;10.040;2024-03-06T12:22:50;12.90;;;8.55;;
7563;SDS011;3823;53.586;10.040;2024-03-06T12:25:20;14.50;;;8.40;;
7563;SDS011;3823;53.586;10.040;2024-03-06T12:27:47;11.77;;;9.15;;
7563;SDS011;3823;53.586;10.040;2024-03-06T12:30:16;10.48;;;8.70;;
7563;SDS011;3823;53.586;10.040;2024-03-06T12:32:43;12.45;;;8.10;;
7563;SDS011;3823;53.586;10.040;2024-03-06T12:35:27;11.60;;;8.35;;
7563;SDS011;3823;53.586;10.040;2024-03-06T12:37:53;12.35;;;8.25;;
7563;SDS011;3823;53.586;10.040;2024-03-06T12:40:19;9.10;;;7.72;;
7563;SDS011;3823;53.586;10.040;2024-03-06T12:42:45;11.55;;;7.97;;
7563;SDS011;3823;53.586;10.040;2024-03-06T12:45:11;11.95;;;8.25;;
7563;SDS011;3823;53.586;10.040;2024-03-06T12:47:40;12.98;;;7.90;;
7563;SDS011;3823;53.586;10.040;2024-03-06T12:50:10;21.20;;;9.30;;
7563;SDS011;3823;53.586;10.040;2024-03-06T12:52:37;9.23;;;6.95;;
7563;SDS011;3823;53.586;10.040;2024-03-06T12:55:03;13.68;;;8.35;;
7563;SDS011;3823;53.586;10.040;2024-03-06T12:57:31;11.85;;;8.05;;
7563;SDS011;3823;53.586;10.040;2024-03-06T12:59:57;12.20;;;8.13;;
7563;SDS011;3823;53.586;10.040;2024-03-06T13:02:23;13.85;;;9.23;;
7563;SDS011;3823;53.586;10.040;2024-03-06T13:04:49;11.98;;;8.10;;
7563;SDS011;3823;53.586;10.040;2024-03-06T13:07:15;15.43;;;8.85;;
7563;SDS011;3823;53.586;10.040;2024-03-06T13:09:41;9.77;;;7.75;;
7563;SDS011;3823;53.586;10.040;2024-03-06T13:12:06;12.23;;;7.88;;
7563;SDS011;3823;53.586;10.040;2024-03-06T13:14:32;12.50;;;8.02;;
7563;SDS011;3823;53.586;10.040;2024-03-06T13:16:58;12.00;;;8.32;;
7563;SDS011;3823;53.586;10.040;2024-03-06T13:19:24;11.25;;;9.57;;
7563;SDS011;3823;53.586;10.040;2024-03-06T13:21:50;14.32;;;8.77;;
7563;SDS011;3823;53.586;10.040;2024-03-06T13:24:15;13.82;;;9.15;;
7563;SDS011;3823;53.586;10.040;2024-03-06T13:26:41;13.18;;;7.22;;
7563;SDS011;3823;53.586;10.040;2024-03-06T13:29:07;11.40;;;6.97;;
7563;SDS011;3823;53.586;10.040;2024-03-06T13:31:32;9.73;;;7.65;;
7563;SDS011;3823;53.586;10.040;2024-03-06T13:34:02;11.82;;;6.78;;
7563;SDS011;3823;53.586;10.040;2024-03-06T13:36:28;10.98;;;6.82;;
7563;SDS011;3823;53.586;10.040;2024-03-06T13:38:54;9.05;;;7.05;;
7563;SDS011;3823;53.586;10.040;2024-03-06T13:41:20;9.50;;;6.72;;
7563;SDS011;3823;53.586;10.040;2024-03-06T13:43:46;8.70;;;6.95;;
7563;SDS011;3823;53.586;10.040;2024-03-06T13:46:12;9.80;;;7.55;;
7563;SDS011;3823;53.586;10.040;2024-03-06T13:48:38;9.02;;;6.78;;
7563;SDS011;3823;53.586;10.040;2024-03-06T13:51:03;8.25;;;6.32;;
7563;SDS011;3823;53.586;10.040;2024-03-06T13:53:30;13.82;;;7.10;;
7563;SDS011;3823;53.586;10.040;2024-03-06T13:55:56;30.30;;;8.50;;
7563;SDS011;3823;53.586;10.040;2024-03-06T13:58:22;9.02;;;6.95;;
7563;SDS011;3823;53.586;10.040;2024-03-06T14:00:47;12.02;;;7.47;;
7563;SDS011;3823;53.586;10.040;2024-03-06T14:03:13;7.85;;;6.72;;
7563;SDS011;3823;53.586;10.040;2024-03-06T14:05:39;10.68;;;6.68;;
7563;SDS011;3823;53.586;10.040;2024-03-06T14:08:05;6.82;;;6.10;;
7563;SDS011;3823;53.586;10.040;2024-03-06T14:10:30;10.95;;;6.97;;
7563;SDS011;3823;53.586;10.040;2024-03-06T14:13:01;8.57;;;7.20;;
7563;SDS011;3823;53.586;10.040;2024-03-06T14:15:27;9.55;;;7.13;;
7563;SDS011;3823;53.586;10.040;2024-03-06T14:17:53;9.38;;;6.57;;
7563;SDS011;3823;53.586;10.040;2024-03-06T14:20:19;8.98;;;6.68;;
7563;SDS011;3823;53.586;10.040;2024-03-06T14:22:45;9.73;;;6.90;;
7563;SDS011;3823;53.586;10.040;2024-03-06T14:25:11;7.60;;;6.50;;
7563;SDS011;3823;53.586;10.040;2024-03-06T14:27:37;7.80;;;7.00;;
7563;SDS011;3823;53.586;10.040;2024-03-06T14:30:06;9.55;;;7.30;;
7563;SDS011;3823;53.586;10.040;2024-03-06T14:32:32;9.77;;;7.13;;
7563;SDS011;3823;53.586;10.040;2024-03-06T14:34:58;9.27;;;6.50;;
7563;SDS011;3823;53.586;10.040;2024-03-06T14:37:24;7.68;;;6.47;;
7563;SDS011;3823;53.586;10.040;2024-03-06T14:39:49;8.57;;;6.60;;
7563;SDS011;3823;53.586;10.040;2024-03-06T14:42:16;7.38;;;6.30;;
7563;SDS011;3823;53.586;10.040;2024-03-06T14:44:41;14.25;;;6.93;;
7563;SDS011;3823;53.586;10.040;2024-03-06T14:47:08;10.02;;;6.50;;
7563;SDS011;3823;53.586;10.040;2024-03-06T14:49:34;8.32;;;6.28;;
7563;SDS011;3823;53.586;10.040;2024-03-06T14:52:00;10.60;;;7.03;;
7563;SDS011;3823;53.586;10.040;2024-03-06T14:54:27;6.88;;;6.18;;
7563;SDS011;3823;53.586;10.040;2024-03-06T14:56:53;10.70;;;8.00;;
7563;SDS011;3823;53.586;10.040;2024-03-06T14:59:19;7.22;;;5.72;;
7563;SDS011;3823;53.586;10.040;2024-03-06T15:01:45;11.65;;;6.72;;
7563;SDS011;3823;53.586;10.040;2024-03-06T15:04:12;13.15;;;7.00;;